createdAt,value
2023-07-26T00:02:00.613Z,64.27
2023-07-26T00:04:28.320Z,65.23
2023-07-26T00:06:55.943Z,65.99
2023-07-26T00:09:23.484Z,66.15
2023-07-26T00:11:50.996Z,65.14
2023-07-26T00:14:18.420Z,65.30
2023-07-26T00:16:45.967Z,65.24
2023-07-26T00:19:13.529Z,65.77
2023-07-26T00:21:41.102Z,66.47
2023-07-26T00:24:08.632Z,67.06
2023-07-26T00:26:36.354Z,67.36
2023-07-26T00:29:03.942Z,67.89
2023-07-26T00:31:31.517Z,69.03
2023-07-26T00:33:59.186Z,69.37
2023-07-26T00:36:26.784Z,70.43
2023-07-26T00:38:54.917Z,70.68
2023-07-26T00:41:22.471Z,71.00
2023-07-26T00:43:50.064Z,70.86
2023-07-26T00:46:18.074Z,72.22
2023-07-26T00:48:45.783Z,73.27
2023-07-26T00:51:14.188Z,73.71
2023-07-26T00:53:41.877Z,73.99
2023-07-26T00:56:10.682Z,74.50
2023-07-26T00:58:38.401Z,74.30
2023-07-26T01:01:06.118Z,75.41
2023-07-26T01:03:33.757Z,75.28
2023-07-26T01:06:13.453Z,76.65
2023-07-26T01:08:43.968Z,77.28
2023-07-26T01:11:21.386Z,77.98
2023-07-26T01:14:00.755Z,78.74
2023-07-26T01:16:28.939Z,79.58
2023-07-26T01:18:56.906Z,80.34
2023-07-26T01:21:24.792Z,80.78
2023-07-26T01:23:52.511Z,80.69
2023-07-26T01:26:20.081Z,80.68
2023-07-26T01:28:47.768Z,79.96
2023-07-26T01:31:17.232Z,80.66
2023-07-26T01:33:46.786Z,80.87
2023-07-26T01:36:14.543Z,80.17
2023-07-26T01:38:44.256Z,80.08
2023-07-26T01:41:12.669Z,80.55
2023-07-26T01:43:40.291Z,79.26
2023-07-26T01:46:10.910Z,80.02
2023-07-26T01:48:38.518Z,79.92
2023-07-26T01:51:07.440Z,78.21
2023-07-26T01:53:35.501Z,78.82
2023-07-26T01:56:03.368Z,78.77
2023-07-26T01:58:31.548Z,79.38
2023-07-26T02:00:59.706Z,79.66
2023-07-26T02:03:28.555Z,79.23
2023-07-26T02:05:56.254Z,80.04
2023-07-26T02:08:23.834Z,80.60
2023-07-26T02:10:51.427Z,81.05
2023-07-26T02:13:19.078Z,78.13
2023-07-26T02:15:48.115Z,78.13
2023-07-26T02:18:15.988Z,78.32
2023-07-26T02:20:43.488Z,78.46
2023-07-26T02:23:11.053Z,78.04
2023-07-26T02:25:38.549Z,78.59
2023-07-26T02:28:06.601Z,77.64
2023-07-26T02:30:34.155Z,78.41
2023-07-26T02:33:01.795Z,79.77
2023-07-26T02:35:29.465Z,77.99
2023-07-26T02:37:57.049Z,77.44
2023-07-26T02:40:25.756Z,78.01
2023-07-26T02:42:55.940Z,77.97
2023-07-26T02:45:23.780Z,78.80
2023-07-26T02:47:51.539Z,80.42
2023-07-26T02:50:19.287Z,79.15
2023-07-26T02:52:47.642Z,78.96
2023-07-26T02:55:15.117Z,79.32
2023-07-26T02:57:42.662Z,79.69
2023-07-26T03:00:11.033Z,79.35
2023-07-26T03:02:38.610Z,80.27
2023-07-26T03:05:06.565Z,79.47
2023-07-26T03:07:34.032Z,80.18
2023-07-26T03:10:01.579Z,80.52
2023-07-26T03:12:30.231Z,81.91
2023-07-26T03:14:57.661Z,84.08
2023-07-26T03:17:25.191Z,84.82
2023-07-26T03:19:52.707Z,86.88
2023-07-26T03:22:20.208Z,87.86
2023-07-26T03:24:47.826Z,88.38
2023-07-26T03:27:15.804Z,88.31
2023-07-26T03:29:43.537Z,90.29
2023-07-26T03:32:11.060Z,89.85
2023-07-26T03:34:38.626Z,89.91
2023-07-26T03:37:06.497Z,89.96
2023-07-26T03:39:34.121Z,90.57
2023-07-26T03:42:02.231Z,92.27
2023-07-26T03:44:30.186Z,92.32
2023-07-26T03:46:57.736Z,92.71
2023-07-26T03:49:25.715Z,92.45
2023-07-26T03:51:53.352Z,91.88
2023-07-26T03:54:20.937Z,92.42
2023-07-26T03:56:48.451Z,92.26
2023-07-26T03:59:16.149Z,92.39
2023-07-26T04:01:43.755Z,92.45
2023-07-26T04:04:11.384Z,93.86
2023-07-26T04:06:38.971Z,93.84
2023-07-26T04:09:06.553Z,94.22
2023-07-26T04:11:34.176Z,93.81
2023-07-26T04:14:01.726Z,94.36
2023-07-26T04:16:29.288Z,94.68
2023-07-26T04:18:56.962Z,94.74
2023-07-26T04:21:24.484Z,93.28
2023-07-26T04:23:51.967Z,93.24
2023-07-26T04:26:20.550Z,93.64
2023-07-26T04:28:48.124Z,93.26
2023-07-26T04:31:15.763Z,93.93
2023-07-26T04:33:43.346Z,93.95
2023-07-26T04:36:10.988Z,92.58
2023-07-26T04:38:38.471Z,90.97
2023-07-26T04:41:06.051Z,91.25
2023-07-26T04:43:33.940Z,91.32
2023-07-26T04:46:01.377Z,91.35
2023-07-26T04:48:28.892Z,91.04
2023-07-26T04:50:56.550Z,91.27
2023-07-26T04:53:24.055Z,90.76
2023-07-26T04:55:52.828Z,89.49
2023-07-26T04:58:20.650Z,87.83
2023-07-26T05:00:48.894Z,87.58
2023-07-26T05:03:16.535Z,87.27
2023-07-26T05:05:50.957Z,87.89
2023-07-26T05:08:19.519Z,87.36
2023-07-26T05:10:51.805Z,86.95
2023-07-26T05:13:20.536Z,87.26
2023-07-26T05:15:48.516Z,85.83
2023-07-26T05:18:16.209Z,84.87
2023-07-26T05:20:43.776Z,83.83
2023-07-26T05:23:11.371Z,80.33
2023-07-26T05:25:41.958Z,76.39
2023-07-26T05:28:09.580Z,75.81
2023-07-26T05:30:39.165Z,76.12
2023-07-26T05:33:07.451Z,75.95
2023-07-26T05:35:35.150Z,75.97
2023-07-26T05:38:03.197Z,76.58
2023-07-26T05:40:30.775Z,76.90
2023-07-26T05:43:00.516Z,77.24
2023-07-26T05:45:28.466Z,78.53
2023-07-26T05:47:56.241Z,78.48
2023-07-26T05:50:25.880Z,77.17
2023-07-26T05:52:53.734Z,77.37
2023-07-26T05:55:21.302Z,77.73
2023-07-26T05:57:48.843Z,77.30
2023-07-26T06:00:18.752Z,77.22
2023-07-26T06:02:46.331Z,76.68
2023-07-26T06:05:13.871Z,76.22
2023-07-26T06:07:41.403Z,76.13
2023-07-26T06:10:10.357Z,75.56
2023-07-26T06:12:38.007Z,76.92
2023-07-26T06:15:06.183Z,75.89
2023-07-26T06:17:34.719Z,76.81
2023-07-26T06:20:02.314Z,76.16
2023-07-26T06:22:29.973Z,76.55
2023-07-26T06:24:57.842Z,75.84
2023-07-26T06:27:30.529Z,75.41
2023-07-26T06:29:58.395Z,75.50
2023-07-26T06:32:26.089Z,74.64
2023-07-26T06:34:53.727Z,73.95
2023-07-26T06:37:21.406Z,73.79
2023-07-26T06:39:48.989Z,73.10
2023-07-26T06:42:16.553Z,69.45
2023-07-26T06:44:44.130Z,69.16
2023-07-26T06:47:11.957Z,69.97
2023-07-26T06:49:39.488Z,70.46
2023-07-26T06:52:07.096Z,69.45
2023-07-26T06:54:36.887Z,68.77
2023-07-26T06:57:05.276Z,68.03
2023-07-26T06:59:34.108Z,67.03
2023-07-26T07:02:01.757Z,65.17
2023-07-26T07:04:29.357Z,65.00
2023-07-26T07:06:56.928Z,60.85
2023-07-26T07:09:25.383Z,61.69
2023-07-26T07:11:52.913Z,59.93
2023-07-26T07:14:21.541Z,61.52
2023-07-26T07:16:49.502Z,61.74
2023-07-26T07:19:17.042Z,60.78
2023-07-26T07:21:45.525Z,62.06
2023-07-26T07:24:13.023Z,61.78
2023-07-26T07:26:40.567Z,61.93
2023-07-26T07:29:08.244Z,61.15
2023-07-26T07:31:36.138Z,59.81
2023-07-26T07:34:03.971Z,59.86
2023-07-26T07:36:31.611Z,59.98
2023-07-26T07:39:00.212Z,58.76
2023-07-26T07:41:27.725Z,59.60
2023-07-26T07:43:55.212Z,60.65
2023-07-26T07:46:22.851Z,58.47
2023-07-26T07:48:50.819Z,57.17
2023-07-26T07:51:18.325Z,58.37
2023-07-26T07:53:48.927Z,58.70
2023-07-26T07:56:16.433Z,57.84
2023-07-26T07:58:43.926Z,56.23
2023-07-26T08:01:11.451Z,53.75
2023-07-26T08:03:39.034Z,53.21
2023-07-26T08:06:07.969Z,51.92
2023-07-26T08:08:35.512Z,53.81
2023-07-26T08:11:04.067Z,54.19
2023-07-26T08:13:31.632Z,54.90
2023-07-26T08:16:00.049Z,54.40
2023-07-26T08:18:29.404Z,53.23
2023-07-26T08:20:56.955Z,54.19
2023-07-26T08:23:24.456Z,54.07
2023-07-26T08:25:52.215Z,52.26
2023-07-26T08:28:19.667Z,51.73
2023-07-26T08:30:47.098Z,51.39
2023-07-26T08:33:14.676Z,49.37
2023-07-26T08:35:43.934Z,47.39
2023-07-26T08:38:14.446Z,43.29
2023-07-26T08:40:47.849Z,39.64
2023-07-26T08:43:18.336Z,43.51
2023-07-26T08:45:46.900Z,43.49
2023-07-26T08:48:15.413Z,43.24
2023-07-26T08:50:43.082Z,44.51
2023-07-26T08:53:10.764Z,43.56
2023-07-26T08:55:38.374Z,42.44
2023-07-26T08:58:06.404Z,41.40
2023-07-26T09:00:34.013Z,43.21
2023-07-26T09:03:06.267Z,43.34
2023-07-26T09:05:33.905Z,40.00
2023-07-26T09:08:01.925Z,38.00
2023-07-26T09:10:30.690Z,36.82
2023-07-26T09:13:11.711Z,34.04
2023-07-26T09:15:41.329Z,31.98
2023-07-26T09:18:13.522Z,31.22
2023-07-26T09:20:41.126Z,32.22
2023-07-26T09:23:10.516Z,32.45
2023-07-26T09:25:45.865Z,33.54
2023-07-26T09:28:15.651Z,31.56
2023-07-26T09:30:46.885Z,29.99
2023-07-26T09:33:14.635Z,30.36
2023-07-26T09:35:44.484Z,29.67
2023-07-26T09:38:18.751Z,28.56
2023-07-26T09:40:49.464Z,28.42
2023-07-26T09:43:35.058Z,25.53
2023-07-26T09:46:08.118Z,25.89
2023-07-26T09:48:58.325Z,26.79
2023-07-26T09:51:32.296Z,30.19
2023-07-26T09:54:00.497Z,32.73
2023-07-26T09:56:34.317Z,35.11
2023-07-26T09:59:02.531Z,37.76
2023-07-26T10:01:31.325Z,37.62
2023-07-26T10:04:04.156Z,37.82
2023-07-26T10:06:34.076Z,38.72
2023-07-26T10:09:02.408Z,38.19
2023-07-26T10:11:30.231Z,38.70
2023-07-26T10:14:00.459Z,39.01
2023-07-26T10:16:28.072Z,39.89
2023-07-26T10:18:58.304Z,38.62
2023-07-26T10:21:26.845Z,37.57
2023-07-26T10:23:58.498Z,38.77
2023-07-26T10:26:30.037Z,39.10
2023-07-26T10:29:00.836Z,38.50
2023-07-26T10:31:28.820Z,38.44
2023-07-26T10:33:57.727Z,38.70
2023-07-26T10:36:30.908Z,38.07
2023-07-26T10:39:05.531Z,39.41
2023-07-26T10:41:35.600Z,39.21
2023-07-26T10:44:08.636Z,38.66
2023-07-26T10:46:56.440Z,38.55
2023-07-26T10:49:34.744Z,39.01
2023-07-26T10:52:05.169Z,40.01
2023-07-26T10:54:38.862Z,38.72
2023-07-26T10:57:28.193Z,38.76
2023-07-26T11:00:19.225Z,38.45
2023-07-26T11:02:49.512Z,38.33
2023-07-26T11:05:18.143Z,38.90
2023-07-26T11:08:22.894Z,40.39
2023-07-26T11:10:52.233Z,39.83
2023-07-26T11:13:27.477Z,40.20
2023-07-26T11:16:14.821Z,38.98
2023-07-26T11:18:43.262Z,38.46
2023-07-26T11:21:18.328Z,37.48
2023-07-26T11:23:46.230Z,37.47
2023-07-26T11:26:13.859Z,36.35
2023-07-26T11:28:42.407Z,36.14
2023-07-26T11:31:19.513Z,37.69
2023-07-26T11:33:49.222Z,38.03
2023-07-26T11:36:21.128Z,37.69
2023-07-26T11:38:49.738Z,38.44
2023-07-26T11:41:21.688Z,35.41
2023-07-26T11:44:00.759Z,35.54
2023-07-26T11:46:30.144Z,36.22
2023-07-26T11:48:58.092Z,35.18
2023-07-26T11:51:25.836Z,35.02
2023-07-26T11:53:56.849Z,34.30
2023-07-26T11:56:31.000Z,34.35
2023-07-26T11:59:02.419Z,33.82
2023-07-26T12:01:30.921Z,32.92
2023-07-26T12:03:58.659Z,32.85
2023-07-26T12:06:31.532Z,33.67
2023-07-26T12:09:12.376Z,32.86
2023-07-26T12:11:50.289Z,33.98
2023-07-26T12:14:21.138Z,33.53
2023-07-26T12:16:53.727Z,35.25
2023-07-26T12:19:25.848Z,34.71
2023-07-26T12:21:53.778Z,34.01
2023-07-26T12:24:21.562Z,33.75
2023-07-26T12:26:50.440Z,33.58
2023-07-26T12:29:18.235Z,33.05
2023-07-26T12:31:47.628Z,33.48
2023-07-26T12:34:22.639Z,31.78
2023-07-26T12:36:52.050Z,32.91
2023-07-26T12:39:22.951Z,32.41
2023-07-26T12:41:50.748Z,32.41
2023-07-26T12:44:19.165Z,31.99
2023-07-26T12:49:19.579Z,31.44
2023-07-26T12:51:50.003Z,32.15
2023-07-26T12:54:18.266Z,32.46
2023-07-26T12:56:46.001Z,31.41
2023-07-26T12:59:13.797Z,31.44
2023-07-26T13:01:42.245Z,30.46
2023-07-26T13:04:10.670Z,30.25
2023-07-26T13:06:50.716Z,31.44
2023-07-26T13:09:18.605Z,31.80
2023-07-26T13:11:46.237Z,30.56
2023-07-26T13:14:13.908Z,30.21
2023-07-26T13:16:41.995Z,29.75
2023-07-26T13:19:10.364Z,29.46
2023-07-26T13:21:37.876Z,30.18
2023-07-26T13:24:06.014Z,29.82
2023-07-26T13:26:33.846Z,30.48
2023-07-26T13:29:02.380Z,29.89
2023-07-26T13:31:30.168Z,28.86
2023-07-26T13:33:57.822Z,29.16
2023-07-26T13:36:25.764Z,29.19
2023-07-26T13:38:53.808Z,29.45
2023-07-26T13:41:21.548Z,29.57
2023-07-26T13:43:49.338Z,29.81
2023-07-26T13:46:33.769Z,30.02
2023-07-26T13:49:04.912Z,31.16
2023-07-26T13:51:33.280Z,31.47
2023-07-26T13:54:02.053Z,31.85
2023-07-26T13:56:30.214Z,31.85
2023-07-26T13:58:57.828Z,30.89
2023-07-26T14:01:27.571Z,30.40
2023-07-26T14:03:55.372Z,31.01
2023-07-26T14:06:25.995Z,32.49
2023-07-26T14:08:53.833Z,32.51
2023-07-26T14:11:21.684Z,32.25
2023-07-26T14:13:50.426Z,31.18
2023-07-26T14:16:22.978Z,32.14
2023-07-26T14:18:54.441Z,31.72
2023-07-26T14:21:22.227Z,31.83
2023-07-26T14:23:49.865Z,31.22
2023-07-26T14:26:17.513Z,32.08
2023-07-26T14:28:45.120Z,31.20
2023-07-26T14:31:12.883Z,31.75
2023-07-26T14:33:40.544Z,31.50
2023-07-26T14:36:08.279Z,32.34
2023-07-26T14:38:36.100Z,33.29
2023-07-26T14:41:03.727Z,34.43
2023-07-26T14:43:31.232Z,34.82
2023-07-26T14:45:58.967Z,35.97
2023-07-26T14:48:26.544Z,35.18
2023-07-26T14:50:55.326Z,34.97
2023-07-26T14:53:26.810Z,35.53
2023-07-26T14:55:54.499Z,35.18
2023-07-26T14:58:22.112Z,35.77
2023-07-26T15:00:49.753Z,36.10
2023-07-26T15:03:17.475Z,34.39
2023-07-26T15:05:47.126Z,32.25
2023-07-26T15:08:15.064Z,33.37
2023-07-26T15:10:42.800Z,33.67
2023-07-26T15:13:11.873Z,33.69
2023-07-26T15:15:45.525Z,33.62
2023-07-26T15:18:14.733Z,33.17
2023-07-26T15:20:45.114Z,33.73
2023-07-26T15:23:13.112Z,34.07
2023-07-26T15:25:41.203Z,34.56
2023-07-26T15:28:09.676Z,34.97
2023-07-26T15:30:38.032Z,35.36
2023-07-26T15:33:06.627Z,35.68
2023-07-26T15:35:38.334Z,35.24
2023-07-26T15:38:07.236Z,34.99
2023-07-26T15:40:49.497Z,35.63
2023-07-26T15:48:18.956Z,34.04
2023-07-26T15:53:17.364Z,34.52
2023-07-26T15:55:45.169Z,35.09
2023-07-26T15:58:12.750Z,34.65
2023-07-26T16:00:40.519Z,34.27
2023-07-26T16:03:08.215Z,34.75
2023-07-26T16:10:37.408Z,34.82
2023-07-26T16:13:05.166Z,35.42
2023-07-26T16:20:34.065Z,35.26
2023-07-26T16:23:01.685Z,35.89
2023-07-26T16:25:29.372Z,35.19
2023-07-26T16:27:57.053Z,35.72
2023-07-26T16:30:25.043Z,35.78
2023-07-26T16:32:52.808Z,36.06
2023-07-26T16:35:20.709Z,35.62
2023-07-26T16:37:58.903Z,36.81
2023-07-26T16:40:31.621Z,35.80
2023-07-26T16:43:01.669Z,35.83
2023-07-26T16:45:31.689Z,35.23
2023-07-26T16:48:01.549Z,35.45
2023-07-26T16:50:29.329Z,36.32
2023-07-26T16:52:57.137Z,36.68
2023-07-26T16:55:24.916Z,37.38
2023-07-26T16:57:52.726Z,36.78
2023-07-26T17:00:20.477Z,37.26
2023-07-26T17:02:48.452Z,37.36
2023-07-26T17:05:16.726Z,37.87
2023-07-26T17:07:44.305Z,37.86
2023-07-26T17:10:12.028Z,37.83
2023-07-26T17:12:42.575Z,37.75
2023-07-26T17:15:10.883Z,37.27
2023-07-26T17:17:38.578Z,37.18
2023-07-26T17:20:07.187Z,37.65
2023-07-26T17:22:34.995Z,37.72
2023-07-26T17:25:02.989Z,37.83
2023-07-26T17:27:30.807Z,36.51
2023-07-26T17:29:58.666Z,35.52
2023-07-26T17:32:26.540Z,35.41
2023-07-26T17:34:54.160Z,35.30
2023-07-26T17:37:21.873Z,34.45
2023-07-26T17:39:52.365Z,34.62
2023-07-26T17:42:20.066Z,34.25
2023-07-26T17:44:48.505Z,34.63
2023-07-26T17:47:16.323Z,35.05
2023-07-26T17:49:45.243Z,35.07
2023-07-26T17:52:12.973Z,34.49
2023-07-26T17:54:40.639Z,35.00
2023-07-26T17:57:08.385Z,35.06
2023-07-26T17:59:39.472Z,35.20
2023-07-26T18:02:07.598Z,35.58
2023-07-26T18:04:35.444Z,35.28
2023-07-26T18:07:03.142Z,35.64
2023-07-26T18:09:31.449Z,35.34
2023-07-26T18:11:59.086Z,36.01
2023-07-26T18:14:28.462Z,36.54
2023-07-26T18:16:56.197Z,36.54
2023-07-26T18:19:23.857Z,36.65
2023-07-26T18:21:51.519Z,36.46
2023-07-26T18:24:19.208Z,36.72
2023-07-26T18:26:47.310Z,37.20
2023-07-26T18:29:17.514Z,37.52
2023-07-26T18:31:45.333Z,37.60
2023-07-26T18:34:13.230Z,37.55
2023-07-26T18:36:40.818Z,37.31
2023-07-26T18:39:08.331Z,37.36
2023-07-26T18:41:35.948Z,37.64
2023-07-26T18:44:03.893Z,37.23
2023-07-26T18:46:31.483Z,37.76
2023-07-26T18:48:59.108Z,37.53
2023-07-26T18:51:26.564Z,37.36
2023-07-26T18:53:54.124Z,37.75
2023-07-26T18:56:21.668Z,37.63
2023-07-26T18:58:49.272Z,37.93
2023-07-26T19:01:17.036Z,38.21
2023-07-26T19:03:44.621Z,38.21
2023-07-26T19:06:12.278Z,38.11
2023-07-26T19:08:39.974Z,38.22
2023-07-26T19:11:07.570Z,38.30
2023-07-26T19:13:35.008Z,38.32
2023-07-26T19:16:02.607Z,38.48
2023-07-26T19:18:30.054Z,39.11
2023-07-26T19:21:01.871Z,40.60
2023-07-26T19:23:29.749Z,41.65
2023-07-26T19:25:57.231Z,40.96
2023-07-26T19:28:24.822Z,39.86
2023-07-26T19:30:52.404Z,40.13
2023-07-26T19:33:20.134Z,40.18
2023-07-26T19:35:57.964Z,40.82
2023-07-26T19:38:27.051Z,41.38
2023-07-26T19:41:05.257Z,42.25
2023-07-26T19:43:33.661Z,42.78
2023-07-26T19:46:02.412Z,43.30
2023-07-26T19:48:30.150Z,43.41
2023-07-26T19:50:58.939Z,43.86
2023-07-26T19:53:28.388Z,44.44
2023-07-26T19:55:55.927Z,45.06
2023-07-26T19:58:23.549Z,45.59
2023-07-26T20:00:51.182Z,45.80
2023-07-26T20:03:18.698Z,44.36
2023-07-26T20:05:50.608Z,44.37
2023-07-26T20:08:18.262Z,43.79
2023-07-26T20:10:46.172Z,42.84
2023-07-26T20:13:14.221Z,43.35
2023-07-26T20:15:41.951Z,44.47
2023-07-26T20:18:10.152Z,46.57
2023-07-26T20:20:38.169Z,48.60
2023-07-26T20:23:06.549Z,51.06
2023-07-26T20:25:35.347Z,53.78
2023-07-26T20:28:02.915Z,55.25
2023-07-26T20:30:30.632Z,56.69
2023-07-26T20:32:58.940Z,57.37
2023-07-26T20:35:26.637Z,58.78
2023-07-26T20:37:54.999Z,59.09
2023-07-26T20:40:22.666Z,59.61
2023-07-26T20:45:17.854Z,60.76
2023-07-26T20:47:45.578Z,59.99
2023-07-26T20:50:13.350Z,59.98
2023-07-26T20:52:41.102Z,59.66
2023-07-26T20:55:09.133Z,59.66
2023-07-26T20:57:36.858Z,59.17
2023-07-26T21:00:05.632Z,59.03
2023-07-26T21:02:33.410Z,58.54
2023-07-26T21:05:01.693Z,58.31
2023-07-26T21:07:29.700Z,58.46
2023-07-26T21:09:57.628Z,58.47
2023-07-26T21:12:25.355Z,58.08
2023-07-26T21:14:53.240Z,57.30
2023-07-26T21:17:21.012Z,56.49
2023-07-26T21:19:48.866Z,56.37
2023-07-26T21:22:16.557Z,56.05
2023-07-26T21:24:44.296Z,55.72
2023-07-26T21:27:11.950Z,55.33
2023-07-26T21:29:39.620Z,55.02
2023-07-26T21:32:07.941Z,53.77
2023-07-26T21:34:35.690Z,53.67
2023-07-26T21:37:03.523Z,53.00
2023-07-26T21:39:31.134Z,52.35
2023-07-26T21:41:58.772Z,52.69
2023-07-26T21:44:29.775Z,52.26
2023-07-26T21:46:57.778Z,51.83
2023-07-26T21:49:25.318Z,51.07
2023-07-26T21:51:52.985Z,51.53
2023-07-26T21:54:20.593Z,50.97
2023-07-26T21:56:48.235Z,50.96
2023-07-26T21:59:15.789Z,51.34
2023-07-26T22:01:45.217Z,51.34
2023-07-26T22:04:13.105Z,51.52
2023-07-26T22:06:40.796Z,51.22
2023-07-26T22:09:08.339Z,50.98
2023-07-26T22:11:36.113Z,50.66
2023-07-26T22:14:04.039Z,50.36
2023-07-26T22:16:32.163Z,50.62
2023-07-26T22:18:59.918Z,50.67
2023-07-26T22:21:27.574Z,50.44
2023-07-26T22:23:55.858Z,50.31
2023-07-26T22:26:23.781Z,50.85
2023-07-26T22:28:51.425Z,50.70
2023-07-26T22:31:19.365Z,50.83
2023-07-26T22:33:46.887Z,51.31
2023-07-26T22:36:14.318Z,51.06
2023-07-26T22:38:42.014Z,51.54
2023-07-26T22:41:10.225Z,51.48
2023-07-26T22:43:37.721Z,51.48
2023-07-26T22:46:05.860Z,52.05
2023-07-26T22:48:33.449Z,51.96
2023-07-26T22:51:00.930Z,51.21
2023-07-26T22:53:28.503Z,51.18
2023-07-26T22:55:56.471Z,51.13
2023-07-26T22:58:23.964Z,50.47
2023-07-26T23:00:59.165Z,51.12
2023-07-26T23:03:26.945Z,50.38
2023-07-26T23:05:59.014Z,50.11
2023-07-26T23:08:27.570Z,50.16
2023-07-26T23:10:59.843Z,49.84
2023-07-26T23:13:28.666Z,49.62
2023-07-26T23:15:58.445Z,49.37
2023-07-26T23:18:26.789Z,49.37
2023-07-26T23:20:54.603Z,49.44
2023-07-26T23:23:23.663Z,49.21
2023-07-26T23:25:51.506Z,49.20
2023-07-26T23:28:19.037Z,48.68
2023-07-26T23:30:47.892Z,49.16
2023-07-26T23:33:16.803Z,49.46
2023-07-26T23:35:45.600Z,48.70
2023-07-26T23:38:13.904Z,48.55
2023-07-26T23:40:41.782Z,48.96
2023-07-26T23:43:10.874Z,48.50
2023-07-26T23:45:38.576Z,48.87
2023-07-26T23:48:06.302Z,49.01
2023-07-26T23:50:33.711Z,48.98
2023-07-26T23:53:01.094Z,48.90
2023-07-26T23:55:28.605Z,49.24
2023-07-26T23:57:56.162Z,48.82
